createdAt,value
2019-05-02T00:03:04.519Z,96446.17
2019-05-02T00:07:59.692Z,96433.90
2019-05-02T00:12:54.505Z,96433.37
2019-05-02T00:17:49.158Z,96428.53
2019-05-02T00:22:48.002Z,96437.55
2019-05-02T00:27:40.126Z,96428.26
2019-05-02T00:32:34.721Z,96427.17
2019-05-02T00:37:29.305Z,96423.81
2019-05-02T00:42:24.173Z,96416.36
2019-05-02T00:47:26.639Z,96418.59
2019-05-02T00:52:21.213Z,96413.39
2019-05-02T00:57:20.026Z,96413.30
2019-05-02T01:02:14.915Z,96410.80
2019-05-02T01:07:11.212Z,96412.70
2019-05-02T01:12:08.484Z,96413.41
2019-05-02T01:17:02.406Z,96416.19
2019-05-02T01:21:56.989Z,96410.95
2019-05-02T01:26:53.392Z,96418.09
2019-05-02T01:31:49.939Z,96411.94
2019-05-02T01:37:05.635Z,96417.61
2019-05-02T01:42:04.022Z,96412.80
2019-05-02T01:46:58.763Z,96413.77
2019-05-02T01:51:52.957Z,96413.01
2019-05-02T01:56:47.530Z,96418.62
2019-05-02T02:01:42.197Z,96419.70
2019-05-02T02:06:38.734Z,96413.49
2019-05-02T02:11:33.922Z,96409.03
2019-05-02T02:16:29.460Z,96414.98
2019-05-02T02:21:27.638Z,96415.03
2019-05-02T02:26:23.658Z,96410.92
2019-05-02T02:31:21.509Z,96410.75
2019-05-02T02:36:16.087Z,96410.27
2019-05-02T02:41:13.090Z,96414.09
2019-05-02T02:46:06.989Z,96417.13
2019-05-02T02:51:01.598Z,96413.65
2019-05-02T02:56:01.654Z,96416.91
2019-05-02T03:00:52.495Z,96410.19
2019-05-02T03:05:47.138Z,96407.45
2019-05-02T03:10:45.107Z,96404.59
2019-05-02T03:15:39.812Z,96398.42
2019-05-02T03:20:39.901Z,96404.33
2019-05-02T03:25:49.356Z,96400.45
2019-05-02T03:30:36.304Z,96406.11
2019-05-02T03:35:39.607Z,96404.23
2019-05-02T03:40:19.992Z,96397.42
2019-05-02T03:45:15.011Z,96396.52
2019-05-02T03:50:10.098Z,96395.70
2019-05-02T03:55:06.786Z,96398.00
2019-05-02T04:00:01.497Z,96398.31
2019-05-02T04:05:00.639Z,96395.01
2019-05-02T04:09:54.417Z,96398.34
2019-05-02T04:14:55.489Z,96400.09
2019-05-02T04:19:45.678Z,96403.27
2019-05-02T04:24:41.051Z,96408.05
2019-05-02T04:29:37.182Z,96416.86
2019-05-02T04:34:31.823Z,96411.13
2019-05-02T04:39:28.651Z,96403.98
2019-05-02T04:44:29.743Z,96401.92
2019-05-02T04:49:28.272Z,96401.16
2019-05-02T04:54:21.815Z,96396.95
2019-05-02T04:59:18.115Z,96392.12
2019-05-02T05:04:08.302Z,96388.95
2019-05-02T05:09:10.433Z,96392.87
2019-05-02T05:14:00.981Z,96394.91
2019-05-02T05:18:55.601Z,96393.53
2019-05-02T05:23:59.651Z,96400.73
2019-05-02T05:28:51.952Z,96403.84
2019-05-02T05:33:47.899Z,96402.32
2019-05-02T05:38:42.878Z,96399.66
2019-05-02T05:43:38.503Z,96407.84
2019-05-02T05:48:37.252Z,96412.02
2019-05-02T05:53:30.191Z,96414.68
2019-05-02T05:58:25.455Z,96409.03
2019-05-02T06:03:20.190Z,96402.30
2019-05-02T06:08:18.454Z,96398.23
2019-05-02T06:13:12.907Z,96397.03
2019-05-02T06:18:07.583Z,96400.22
2019-05-02T06:23:02.151Z,96405.13
2019-05-02T06:28:00.207Z,96400.84
2019-05-02T06:32:54.921Z,96405.77
2019-05-02T06:37:50.531Z,96398.81
2019-05-02T06:42:46.074Z,96401.50
2019-05-02T06:47:41.549Z,96402.83
2019-05-02T06:52:37.518Z,96400.19
2019-05-02T06:57:32.137Z,96398.08
2019-05-02T07:02:28.303Z,96399.11
2019-05-02T07:07:24.958Z,96385.13
2019-05-02T07:12:20.488Z,96381.66
2019-05-02T07:17:38.316Z,96380.64
2019-05-02T07:22:33.040Z,96375.06
2019-05-02T07:27:33.079Z,96369.52
2019-05-02T07:32:26.701Z,96367.13
2019-05-02T07:37:21.034Z,96367.13
2019-05-02T07:42:15.935Z,96372.16
2019-05-02T07:47:10.543Z,96363.83
2019-05-02T07:52:05.329Z,96365.77
2019-05-02T07:57:02.340Z,96358.19
2019-05-02T08:01:56.455Z,96351.95
2019-05-02T08:06:51.144Z,96352.02
2019-05-02T08:11:46.083Z,96350.34
2019-05-02T08:16:40.679Z,96341.58
2019-05-02T08:21:35.268Z,96347.22
2019-05-02T08:26:31.515Z,96345.15
2019-05-02T08:31:26.101Z,96344.89
2019-05-02T08:36:20.714Z,96335.48
2019-05-02T08:41:19.879Z,96331.00
2019-05-02T08:46:14.563Z,96328.83
2019-05-02T08:51:08.501Z,96320.66
2019-05-02T08:56:03.173Z,96317.16
2019-05-02T09:00:57.775Z,96321.07
2019-05-02T09:06:04.645Z,96312.14
2019-05-02T09:10:48.870Z,96308.34
2019-05-02T09:15:51.253Z,96307.52
2019-05-02T09:20:54.913Z,96301.25
2019-05-02T09:25:51.958Z,96288.92
2019-05-02T09:30:49.120Z,96275.73
2019-05-02T09:35:45.849Z,96267.36
2019-05-02T09:40:47.182Z,96271.36
2019-05-02T09:45:43.945Z,96257.42
2019-05-02T09:50:38.607Z,96256.31
2019-05-02T09:55:33.591Z,96250.80
2019-05-02T10:00:46.748Z,96252.20
2019-05-02T10:05:43.119Z,96250.66
2019-05-02T10:10:44.258Z,96243.92
2019-05-02T10:15:34.555Z,96234.51
2019-05-02T10:20:34.165Z,96227.61
2019-05-02T10:25:32.840Z,96210.58
2019-05-02T10:30:24.822Z,96210.92
2019-05-02T10:35:22.898Z,96202.11
2019-05-02T10:40:17.879Z,96187.42
2019-05-02T10:45:16.759Z,96192.09
2019-05-02T10:50:12.491Z,96189.28
2019-05-02T10:55:14.120Z,96183.77
2019-05-02T11:00:23.404Z,96166.62
2019-05-02T11:05:26.542Z,96160.66
2019-05-02T11:10:21.832Z,96149.35
2019-05-02T11:15:34.911Z,96146.14
2019-05-02T11:20:31.899Z,96134.19
2019-05-02T11:25:26.683Z,96132.67
2019-05-02T11:30:26.388Z,96126.70
2019-05-02T11:35:17.880Z,96119.13
2019-05-02T11:40:15.623Z,96119.54
2019-05-02T11:45:12.148Z,96118.52
2019-05-02T11:50:08.760Z,96114.68
2019-05-02T11:55:04.763Z,96122.09
2019-05-02T12:00:04.134Z,96114.24
2019-05-02T12:04:56.044Z,96114.11
2019-05-02T12:09:56.692Z,96107.02
2019-05-02T12:14:47.329Z,96093.28
2019-05-02T12:19:42.582Z,96089.80
2019-05-02T12:24:40.890Z,96089.11
2019-05-02T12:29:34.298Z,96089.90
2019-05-02T12:34:28.975Z,96080.00
2019-05-02T12:39:23.669Z,96079.85
2019-05-02T12:44:18.659Z,96083.45
2019-05-02T12:49:24.397Z,96088.14
2019-05-02T12:54:09.875Z,96081.55
2019-05-02T12:59:05.087Z,96079.62
2019-05-02T13:04:02.776Z,96079.30
2019-05-02T13:08:57.770Z,96073.40
2019-05-02T13:13:53.409Z,96070.91
2019-05-02T13:18:57.202Z,96068.67
2019-05-02T13:24:07.552Z,96050.44
2019-05-02T13:28:59.269Z,96056.97
2019-05-02T13:33:59.495Z,96055.97
2019-05-02T13:38:54.440Z,96051.38
2019-05-02T13:43:52.115Z,96061.86
2019-05-02T13:48:47.304Z,96067.72
2019-05-02T13:53:43.526Z,96098.11
2019-05-02T13:58:38.231Z,96114.16
2019-05-02T14:03:33.065Z,96123.36
2019-05-02T14:08:36.709Z,96131.75
2019-05-02T14:13:28.915Z,96123.58
2019-05-02T14:18:29.122Z,96136.84
2019-05-02T14:23:19.873Z,96128.25
2019-05-02T14:28:14.556Z,96133.23
2019-05-02T14:33:11.759Z,96136.94
2019-05-02T14:38:13.569Z,96127.74
2019-05-02T14:43:08.404Z,96122.69
2019-05-02T14:48:17.899Z,96126.12
2019-05-02T14:53:02.613Z,96120.37
2019-05-02T14:58:02.147Z,96109.25
2019-05-02T15:02:54.079Z,96122.44
2019-05-02T15:07:48.786Z,96122.59
2019-05-02T15:12:43.446Z,96105.27
2019-05-02T15:17:38.116Z,96096.04
2019-05-02T15:22:37.325Z,96099.66
2019-05-02T15:27:40.093Z,96093.52
2019-05-02T15:32:46.410Z,96084.02
2019-05-02T15:37:41.647Z,96085.00
2019-05-02T15:42:36.174Z,96075.87
2019-05-02T15:47:32.026Z,96074.27
2019-05-02T15:52:28.542Z,96079.30
2019-05-02T15:57:24.889Z,96092.91
2019-05-02T16:02:26.487Z,96089.55
2019-05-02T16:07:22.367Z,96090.39
2019-05-02T16:12:16.770Z,96088.44
2019-05-02T16:17:12.442Z,96092.91
2019-05-02T16:22:17.805Z,96092.40
2019-05-02T16:27:16.410Z,96090.87
2019-05-02T16:32:16.957Z,96086.23
2019-05-02T16:37:16.554Z,96083.89
2019-05-02T16:42:08.569Z,96087.11
2019-05-02T16:47:03.725Z,96087.20
2019-05-02T16:52:04.906Z,96090.75
2019-05-02T16:56:58.380Z,96097.92
2019-05-02T17:01:54.394Z,96095.11
2019-05-02T17:06:48.253Z,96086.67
2019-05-02T17:11:47.055Z,96088.02
2019-05-02T17:16:42.122Z,96094.16
2019-05-02T17:21:52.364Z,96094.17
2019-05-02T17:26:33.184Z,96098.44
2019-05-02T17:31:27.965Z,96107.39
2019-05-02T17:36:28.654Z,96100.03
2019-05-02T17:41:19.167Z,96093.95
2019-05-02T17:46:18.349Z,96096.09
2019-05-02T17:51:18.100Z,96110.59
2019-05-02T17:56:20.272Z,96107.16
2019-05-02T18:01:10.861Z,96111.39
2019-05-02T18:06:07.498Z,96112.19
2019-05-02T18:11:02.939Z,96107.97
2019-05-02T18:15:57.700Z,96104.80
2019-05-02T18:20:52.887Z,96105.32
2019-05-02T18:25:48.011Z,96103.23
2019-05-02T18:30:42.622Z,96105.05
2019-05-02T18:35:41.956Z,96099.51
2019-05-02T18:40:33.607Z,96100.83
2019-05-02T18:45:28.828Z,96103.94
2019-05-02T18:50:44.499Z,96119.47
2019-05-02T18:55:32.620Z,96131.84
2019-05-02T19:00:35.531Z,96137.64
2019-05-02T19:05:26.521Z,96147.86
2019-05-02T19:10:21.130Z,96173.98
2019-05-02T19:15:16.849Z,96205.02
2019-05-02T19:20:34.265Z,96208.28
2019-05-02T19:25:29.041Z,96223.06
2019-05-02T19:30:29.926Z,96232.90
2019-05-02T19:35:24.634Z,96238.78
2019-05-02T19:40:28.207Z,96224.11
2019-05-02T19:45:21.811Z,96242.16
2019-05-02T19:50:39.268Z,96247.25
2019-05-02T19:55:29.814Z,96239.30
2019-05-02T20:00:24.587Z,96241.39
2019-05-02T20:05:24.080Z,96256.85
2019-05-02T20:10:17.873Z,96258.03
2019-05-02T20:15:17.059Z,96255.58
2019-05-02T20:20:54.096Z,96258.29
2019-05-02T20:25:48.784Z,96260.73
2019-05-02T20:30:43.539Z,96260.08
2019-05-02T20:35:38.263Z,96251.72
2019-05-02T20:40:35.214Z,96247.61
2019-05-02T20:45:32.129Z,96251.05
2019-05-02T20:50:26.566Z,96246.48
2019-05-02T20:55:21.390Z,96241.95
2019-05-02T21:00:26.283Z,96242.36
2019-05-02T21:05:32.126Z,96235.59
2019-05-02T21:10:28.672Z,96230.84
2019-05-02T21:15:23.343Z,96230.46
2019-05-02T21:20:17.930Z,96237.06
2019-05-02T21:25:13.142Z,96230.60
2019-05-02T21:30:12.351Z,96242.80
2019-05-02T21:35:08.883Z,96243.30
2019-05-02T21:40:04.212Z,96240.53
2019-05-02T21:44:58.803Z,96240.14
2019-05-02T21:49:55.019Z,96242.30
2019-05-02T21:55:03.112Z,96244.58
2019-05-02T21:59:57.691Z,96247.41
2019-05-02T22:04:52.888Z,96242.45
2019-05-02T22:09:47.499Z,96249.50
2019-05-02T22:14:42.259Z,96249.75
2019-05-02T22:19:36.866Z,96242.55
2019-05-02T22:24:31.538Z,96238.41
2019-05-02T22:29:26.116Z,96247.16
2019-05-02T22:34:22.019Z,96250.45
2019-05-02T22:39:34.640Z,96238.52
2019-05-02T22:44:29.361Z,96242.59
2019-05-02T22:49:23.984Z,96237.38
2019-05-02T22:54:27.719Z,96235.27
2019-05-02T22:59:14.902Z,96227.66
2019-05-02T23:04:09.470Z,96238.48
2019-05-02T23:09:06.177Z,96232.54
2019-05-02T23:14:01.784Z,96231.36
2019-05-02T23:18:56.630Z,96233.64
2019-05-02T23:23:52.355Z,96228.22
2019-05-02T23:28:51.840Z,96229.82
2019-05-02T23:33:58.217Z,96225.25
2019-05-02T23:38:52.805Z,96228.91
2019-05-02T23:43:47.482Z,96228.16
2019-05-02T23:48:42.057Z,96221.59
2019-05-02T23:53:36.651Z,96226.28
2019-05-02T23:58:32.005Z,96220.36
